Time;durP1;ratioP1;P1;durP2;ratioP2;P2;SDS_P1;SDS_P2;PMS_P1;PMS_P2;Temp;Humidity;BMP_temperature;BMP_pressure;BME280_temperature;BME280_humidity;BME280_pressure;Samples;Min_cycle;Max_cycle;Signal;HPM_P1;HPM_P2
2022/10/07 00:00:27;;;;;;;;;;;;;;;;;;5071664;28;1238;-75
2022/10/07 00:02:53;;;;;;;;;;;;;;;;;;5072305;28;1151;-75
2022/10/07 00:05:20;;;;;;;;;;;;;;;;;;5073195;28;885;-75
2022/10/07 00:07:47;;;;;;;;;;;;;;;;;;5072467;28;1296;-76
2022/10/07 00:10:13;;;;;;;;;;;;;;;;;;5072812;28;1919;-75
2022/10/07 00:12:39;;;;;;;;;;;;;;;;;;5071333;28;1590;-75
2022/10/07 00:15:06;;;;;;;;;;;;;;;;;;5072750;28;1091;-74
2022/10/07 00:17:33;;;;;;;;;;;;;;;;;;5071482;28;1416;-74
2022/10/07 00:19:59;;;;;;;;;;;;;;;;;;5072596;28;1088;-75
2022/10/07 00:22:27;;;;;;;;;;;;;;;;;;5071136;28;1652;-75
2022/10/07 00:24:53;;;;;;;;;;;;;;;;;;5072701;28;1071;-75
2022/10/07 00:27:19;;;;;;;;;;;;;;;;;;5071758;28;1559;-75
2022/10/07 00:29:46;;;;;;;;;;;;;;;;;;5070889;28;1911;-75
2022/10/07 00:32:13;;;;;;;;;;;;;;;;;;5070665;28;1284;-75
2022/10/07 00:34:39;;;;;;;;;;;;;;;;;;5071107;28;1126;-75
2022/10/07 00:37:06;;;;;;;;;;;;;;;;;;5070905;28;1631;-75
2022/10/07 00:39:33;;;;;;;;;;;;;;;;;;5070930;28;1490;-75
2022/10/07 00:42:00;;;;;;;;;;;;;;;;;;5070611;28;1289;-76
2022/10/07 00:44:32;;;;;;;;;;;;;;;;;;5070808;28;1188;-74
2022/10/07 00:46:58;;;;;;;;;;;;;;;;;;5072315;28;1412;-75
2022/10/07 00:49:28;;;;;;;;;;;;;;;;;;5070713;28;1910;-75
2022/10/07 00:51:54;;;;;;;;;;;;;;;;;;5071510;28;1079;-75
2022/10/07 00:54:20;;;;;;;;;;;;;;;;;;5072310;28;818;-75
2022/10/07 00:56:49;;;;;;;;;;;;;;;;;;5071183;28;1370;-75
2022/10/07 00:59:15;;;;;;;;;;;;;;;;;;5073898;28;830;-76
2022/10/07 01:01:42;;;;;;;;;;;;;;;;;;5071644;28;1258;-75
2022/10/07 01:04:09;;;;;;;;;;;;;;;;;;5071117;28;1202;-75
2022/10/07 01:06:38;;;;;;;;;;;;;;;;;;5070456;28;1416;-75
2022/10/07 01:09:05;;;;;;;;;;;;;;;;;;5069743;28;1914;-74
2022/10/07 01:11:33;;;;;;;;;;;;;;;;;;5070375;28;803;-75
2022/10/07 01:14:06;;;;;;;;;;;;;;;;;;5070470;28;1232;-75
2022/10/07 01:16:33;;;;;;;;;;;;;;;;;;5070238;28;1290;-74
2022/10/07 01:19:02;;;;;;;;;;;;;;;;;;5070164;28;1320;-75
2022/10/07 01:21:31;;;;;;;;;;;;;;;;;;5070138;28;1281;-75
2022/10/07 01:24:02;;;;;;;;;;;;;;;;;;5070080;28;1218;-76
2022/10/07 01:26:50;;;;;;;;;;;;;;;;;;5071385;28;1379;-76
2022/10/07 01:29:18;;;;;;;;;;;;;;;;;;5070059;28;1917;-74
2022/10/07 01:31:46;;;;;;;;;;;;;;;;;;5070974;28;821;-75
2022/10/07 01:34:12;;;;;;;;;;;;;;;;;;5071450;28;811;-75
2022/10/07 01:36:39;;;;;;;;;;;;;;;;;;5070153;28;1323;-75
2022/10/07 01:39:07;;;;;;;;;;;;;;;;;;5069915;28;1358;-75
2022/10/07 01:41:34;;;;;;;;;;;;;;;;;;5069791;28;1369;-75
2022/10/07 01:44:02;;;;;;;;;;;;;;;;;;5071123;28;956;-75
2022/10/07 01:46:29;;;;;;;;;;;;;;;;;;5054922;28;1318;-76
2022/10/07 01:48:58;;;;;;;;;;;;;;;;;;5049949;28;1914;-75
2022/10/07 01:51:27;;;;;;;;;;;;;;;;;;5049781;28;1321;-75
2022/10/07 01:53:54;;;;;;;;;;;;;;;;;;5050078;28;1609;-76
2022/10/07 01:56:35;;;;;;;;;;;;;;;;;;5050567;28;1396;-75
2022/10/07 01:59:07;;;;;;;;;;;;;;;;;;5046092;28;1432;-75
2022/10/07 02:01:35;;;;;;;;;;;;;;;;;;5049575;28;1654;-74
2022/10/07 02:04:16;;;;;;;;;;;;;;;;;;5049881;28;1277;-75
2022/10/07 02:06:45;;;;;;;;;;;;;;;;;;5046041;28;1385;-74
2022/10/07 02:09:15;;;;;;;;;;;;;;;;;;5049840;28;1911;-75
2022/10/07 02:11:41;;;;;;;;;;;;;;;;;;5049534;28;965;-75
2022/10/07 02:14:10;;;;;;;;;;;;;;;;;;5049659;28;1296;-75
2022/10/07 02:16:37;;;;;;;;;;;;;;;;;;5049733;28;1414;-75
2022/10/07 02:19:04;;;;;;;;;;;;;;;;;;5050578;28;1206;-76
2022/10/07 02:21:31;;;;;;;;;;;;;;;;;;5061604;28;1535;-74
2022/10/07 02:23:58;;;;;;;;;;;;;;;;;;5073860;28;1408;-73
2022/10/07 02:26:26;;;;;;;;;;;;;;;;;;5073867;28;1471;-73
2022/10/07 02:28:52;;;;;;;;;;;;;;;;;;5073428;28;1977;-75
2022/10/07 02:31:22;;;;;;;;;;;;;;;;;;5073483;28;1316;-74
2022/10/07 02:33:52;;;;;;;;;;;;;;;;;;5073691;28;1246;-75
2022/10/07 02:36:21;;;;;;;;;;;;;;;;;;5075498;28;1317;-73
2022/10/07 02:38:48;;;;;;;;;;;;;;;;;;5074154;28;835;-74
2022/10/07 02:41:30;;;;;;;;;;;;;;;;;;5074304;28;1363;-74
2022/10/07 02:43:57;;;;;;;;;;;;;;;;;;5073569;28;1453;-74
2022/10/07 02:46:26;;;;;;;;;;;;;;;;;;5059176;28;1389;-74
2022/10/07 02:48:55;;;;;;;;;;;;;;;;;;5053173;28;1978;-73
2022/10/07 02:51:21;;;;;;;;;;;;;;;;;;5053038;28;898;-74
2022/10/07 02:53:49;;;;;;;;;;;;;;;;;;5053442;28;1470;-74
2022/10/07 02:56:15;;;;;;;;;;;;;;;;;;5054291;28;1310;-73
2022/10/07 02:58:44;;;;;;;;;;;;;;;;;;5054634;28;941;-74
2022/10/07 03:01:11;;;;;;;;;;;;;;;;;;5054224;28;791;-73
2022/10/07 03:03:39;;;;;;;;;;;;;;;;;;5052797;28;1188;-74
2022/10/07 03:06:06;;;;;;;;;;;;;;;;;;5052647;28;1365;-74
2022/10/07 03:08:34;;;;;;;;;;;;;;;;;;5065378;22;3784;-76
2022/10/07 03:11:01;;;;;;;;;;;;;;;;;;5068942;28;1969;-76
2022/10/07 03:13:30;;;;;;;;;;;;;;;;;;5069143;28;1331;-76
2022/10/07 03:15:59;;;;;;;;;;;;;;;;;;5069107;28;1357;-76
2022/10/07 03:18:28;;;;;;;;;;;;;;;;;;5069170;28;1583;-77
2022/10/07 03:21:21;;;;;;;;;;;;;;;;;;5052283;28;2354;-76
2022/10/07 03:23:51;;;;;;;;;;;;;;;;;;5052704;28;1344;-77
2022/10/07 03:26:18;;;;;;;;;;;;;;;;;;5052281;28;1297;-76
2022/10/07 03:28:45;;;;;;;;;;;;;;;;;;5053980;28;1419;-76
2022/10/07 03:31:14;;;;;;;;;;;;;;;;;;5051405;28;1359;-74
2022/10/07 03:33:45;;;;;;;;;;;;;;;;;;5052216;28;1330;-76
2022/10/07 03:36:12;;;;;;;;;;;;;;;;;;5054060;28;1314;-76
2022/10/07 03:38:42;;;;;;;;;;;;;;;;;;5051897;28;1412;-77
2022/10/07 03:41:10;;;;;;;;;;;;;;;;;;5052010;28;1914;-77
2022/10/07 03:43:36;;;;;;;;;;;;;;;;;;5051925;28;1341;-76
2022/10/07 03:46:05;;;;;;;;;;;;;;;;;;5051802;28;1150;-77
2022/10/07 03:48:34;;;;;;;;;;;;;;;;;;5051970;28;1585;-76
2022/10/07 03:51:01;;;;;;;;;;;;;;;;;;5051763;28;1582;-76
2022/10/07 03:53:30;;;;;;;;;;;;;;;;;;5051645;28;1336;-76
2022/10/07 03:56:00;;;;;;;;;;;;;;;;;;5051588;28;1183;-76
2022/10/07 03:58:28;;;;;;;;;;;;;;;;;;5051838;28;1501;-76
2022/10/07 04:01:03;;;;;;;;;;;;;;;;;;5051546;28;1910;-76
2022/10/07 04:03:29;;;;;;;;;;;;;;;;;;5051329;28;1359;-78
2022/10/07 04:05:58;;;;;;;;;;;;;;;;;;5051603;28;1339;-76
2022/10/07 04:08:27;;;;;;;;;;;;;;;;;;5051400;28;1581;-77
2022/10/07 04:10:53;;;;;;;;;;;;;;;;;;5051354;28;1435;-77
2022/10/07 04:13:21;;;;;;;;;;;;;;;;;;5051171;28;1183;-77
2022/10/07 04:15:47;;;;;;;;;;;;;;;;;;5051336;28;1349;-76
2022/10/07 04:18:14;;;;;;;;;;;;;;;;;;5051291;28;1526;-76
2022/10/07 04:20:40;;;;;;;;;;;;;;;;;;5051072;28;1914;-76
2022/10/07 04:23:08;;;;;;;;;;;;;;;;;;5050629;28;1163;-76
2022/10/07 04:25:34;;;;;;;;;;;;;;;;;;5034378;28;1502;-76
2022/10/07 04:28:07;;;;;;;;;;;;;;;;;;5030884;28;1506;-76
2022/10/07 04:30:42;;;;;;;;;;;;;;;;;;5029452;28;1379;-76
2022/10/07 04:33:09;;;;;;;;;;;;;;;;;;5045065;28;1605;-76
2022/10/07 04:35:35;;;;;;;;;;;;;;;;;;5050515;28;1652;-76
2022/10/07 04:38:02;;;;;;;;;;;;;;;;;;5030756;28;1502;-76
2022/10/07 04:40:29;;;;;;;;;;;;;;;;;;5030900;28;1918;-77
2022/10/07 04:45:42;;;;;;;;;;;;;;;;;;5026721;28;1588;-77
2022/10/07 04:48:09;;;;;;;;;;;;;;;;;;5014407;28;1527;-76
2022/10/07 04:50:37;;;;;;;;;;;;;;;;;;5030489;28;1594;-77
2022/10/07 04:53:04;;;;;;;;;;;;;;;;;;5038434;28;1548;-77
2022/10/07 04:55:34;;;;;;;;;;;;;;;;;;5034089;28;2396;-77
2022/10/07 04:58:01;;;;;;;;;;;;;;;;;;5016793;28;1679;-77
2022/10/07 05:00:27;;;;;;;;;;;;;;;;;;5023521;28;1906;-77
2022/10/07 05:02:55;;;;;;;;;;;;;;;;;;5025252;28;1477;-78
2022/10/07 05:05:22;;;;;;;;;;;;;;;;;;5054859;28;1469;-78
2022/10/07 05:07:49;;;;;;;;;;;;;;;;;;5032703;28;1357;-78
2022/10/07 05:10:15;;;;;;;;;;;;;;;;;;5028387;28;1365;-77
2022/10/07 05:12:41;;;;;;;;;;;;;;;;;;5034095;28;1391;-77
2022/10/07 05:15:09;;;;;;;;;;;;;;;;;;5034225;28;1414;-77
2022/10/07 05:17:35;;;;;;;;;;;;;;;;;;5032955;28;1652;-76
2022/10/07 05:20:03;;;;;;;;;;;;;;;;;;5038683;28;1910;-77
2022/10/07 05:22:30;;;;;;;;;;;;;;;;;;5035695;28;1783;-76
2022/10/07 05:24:56;;;;;;;;;;;;;;;;;;5028929;28;1430;-77
2022/10/07 05:27:22;;;;;;;;;;;;;;;;;;5030509;28;1392;-77
2022/10/07 05:29:49;;;;;;;;;;;;;;;;;;5018797;28;1331;-78
2022/10/07 05:32:15;;;;;;;;;;;;;;;;;;5029470;28;1413;-76
2022/10/07 05:34:42;;;;;;;;;;;;;;;;;;5038506;28;1598;-76
2022/10/07 05:37:11;;;;;;;;;;;;;;;;;;5041404;28;1391;-76
2022/10/07 05:39:37;;;;;;;;;;;;;;;;;;5038359;28;1526;-76
2022/10/07 05:42:12;;;;;;;;;;;;;;;;;;5041117;28;1515;-76
2022/10/07 05:44:42;;;;;;;;;;;;;;;;;;5049985;28;1520;-76
2022/10/07 05:47:10;;;;;;;;;;;;;;;;;;5049942;28;1378;-77
2022/10/07 05:49:36;;;;;;;;;;;;;;;;;;5049869;28;1247;-77
2022/10/07 05:52:03;;;;;;;;;;;;;;;;;;5049445;28;1416;-76
2022/10/07 05:54:32;;;;;;;;;;;;;;;;;;5053641;28;1364;-76
2022/10/07 05:56:59;;;;;;;;;;;;;;;;;;5056419;28;1306;-76
2022/10/07 05:59:25;;;;;;;;;;;;;;;;;;5057712;28;803;-76
2022/10/07 06:01:56;;;;;;;;;;;;;;;;;;5056152;28;1914;-76
2022/10/07 06:04:22;;;;;;;;;;;;;;;;;;5056264;28;1256;-76
2022/10/07 06:06:51;;;;;;;;;;;;;;;;;;5056239;28;1468;-76
2022/10/07 06:14:59;;;;;;;;;;;;;;;;;;5056629;28;1322;-76
2022/10/07 06:17:25;;;;;;;;;;;;;;;;;;5056507;28;1342;-76
2022/10/07 06:19:55;;;;;;;;;;;;;;;;;;5056365;28;1910;-77
2022/10/07 06:22:22;;;;;;;;;;;;;;;;;;5056460;28;1141;-76
2022/10/07 06:24:50;;;;;;;;;;;;;;;;;;5056919;28;1167;-77
2022/10/07 06:27:18;;;;;;;;;;;;;;;;;;5056441;28;1399;-77
2022/10/07 06:29:44;;;;;;;;;;;;;;;;;;5057731;28;861;-77
2022/10/07 06:32:11;;;;;;;;;;;;;;;;;;5045496;28;1476;-76
2022/10/07 06:34:38;;;;;;;;;;;;;;;;;;5036808;28;1313;-77
2022/10/07 06:37:06;;;;;;;;;;;;;;;;;;5036318;28;1464;-77
2022/10/07 06:39:33;;;;;;;;;;;;;;;;;;5036530;28;1328;-77
2022/10/07 06:41:59;;;;;;;;;;;;;;;;;;5035938;28;1973;-77
2022/10/07 06:44:47;;;;;;;;;;;;;;;;;;5032772;28;1732;-77
2022/10/07 06:47:16;;;;;;;;;;;;;;;;;;5046849;28;1453;-77
2022/10/07 06:49:45;;;;;;;;;;;;;;;;;;5056746;28;1986;-77
2022/10/07 06:52:11;;;;;;;;;;;;;;;;;;5040337;28;1476;-77
2022/10/07 06:54:38;;;;;;;;;;;;;;;;;;5036869;28;1534;-76
2022/10/07 06:57:04;;;;;;;;;;;;;;;;;;5042633;28;1458;-76
2022/10/07 06:59:31;;;;;;;;;;;;;;;;;;5036158;28;1468;-76
2022/10/07 07:02:05;;;;;;;;;;;;;;;;;;5052252;28;1914;-77
2022/10/07 07:04:32;;;;;;;;;;;;;;;;;;5035932;28;1194;-77
2022/10/07 07:06:58;;;;;;;;;;;;;;;;;;5031678;28;1314;-77
2022/10/07 07:09:24;;;;;;;;;;;;;;;;;;5033145;28;1432;-77
2022/10/07 07:11:56;;;;;;;;;;;;;;;;;;5032556;28;1387;-76
2022/10/07 07:14:26;;;;;;;;;;;;;;;;;;5033100;28;1226;-77
2022/10/07 07:17:06;;;;;;;;;;;;;;;;;;5024355;28;1503;-77
2022/10/07 07:19:32;;;;;;;;;;;;;;;;;;5023238;28;1559;-77
2022/10/07 07:21:59;;;;;;;;;;;;;;;;;;5032309;28;1903;-77
2022/10/07 07:24:27;;;;;;;;;;;;;;;;;;5032861;28;1172;-77
2022/10/07 07:26:58;;;;;;;;;;;;;;;;;;5032646;28;1431;-77
2022/10/07 07:29:27;;;;;;;;;;;;;;;;;;5032859;28;1341;-77
2022/10/07 07:31:58;;;;;;;;;;;;;;;;;;5032697;28;1399;-77
2022/10/07 07:34:28;;;;;;;;;;;;;;;;;;5032541;28;1494;-77
2022/10/07 07:36:55;;;;;;;;;;;;;;;;;;5027505;28;1784;-77
2022/10/07 07:39:25;;;;;;;;;;;;;;;;;;5033036;28;1195;-77
2022/10/07 07:41:59;;;;;;;;;;;;;;;;;;5033819;28;1918;-78
2022/10/07 07:44:28;;;;;;;;;;;;;;;;;;5046856;28;1431;-78
2022/10/07 07:46:56;;;;;;;;;;;;;;;;;;5034133;28;1417;-78
2022/10/07 07:49:23;;;;;;;;;;;;;;;;;;5034885;28;1415;-78
2022/10/07 07:51:52;;;;;;;;;;;;;;;;;;5034186;28;1501;-78
2022/10/07 07:54:27;;;;;;;;;;;;;;;;;;5031084;28;1455;-78
2022/10/07 07:56:53;;;;;;;;;;;;;;;;;;5029134;28;1520;-77
2022/10/07 07:59:20;;;;;;;;;;;;;;;;;;5041787;28;1591;-78
2022/10/07 08:01:48;;;;;;;;;;;;;;;;;;5035090;28;1972;-78
2022/10/07 08:04:15;;;;;;;;;;;;;;;;;;5034285;28;1199;-78
2022/10/07 08:06:41;;;;;;;;;;;;;;;;;;5031551;28;1588;-79
2022/10/07 08:09:09;;;;;;;;;;;;;;;;;;5041046;28;1410;-78
2022/10/07 08:11:36;;;;;;;;;;;;;;;;;;5036202;28;1662;-78
2022/10/07 08:14:06;;;;;;;;;;;;;;;;;;5042823;28;1187;-78
2022/10/07 08:16:33;;;;;;;;;;;;;;;;;;5049511;28;1373;-78
2022/10/07 08:19:04;;;;;;;;;;;;;;;;;;5032368;28;1658;-78
2022/10/07 08:21:31;;;;;;;;;;;;;;;;;;5045935;28;1946;-78
2022/10/07 08:23:59;;;;;;;;;;;;;;;;;;5030883;28;1552;-79
2022/10/07 08:26:31;;;;;;;;;;;;;;;;;;5030362;28;1421;-78
2022/10/07 08:29:00;;;;;;;;;;;;;;;;;;5028520;28;1796;-79
2022/10/07 08:31:27;;;;;;;;;;;;;;;;;;5044466;28;1571;-78
2022/10/07 08:33:53;;;;;;;;;;;;;;;;;;5053511;28;1147;-80
2022/10/07 08:36:21;;;;;;;;;;;;;;;;;;5053350;28;1087;-78
2022/10/07 08:38:48;;;;;;;;;;;;;;;;;;5043351;28;1471;-78
2022/10/07 08:41:17;;;;;;;;;;;;;;;;;;5058752;28;1987;-78
2022/10/07 08:43:46;;;;;;;;;;;;;;;;;;5033227;28;1401;-78
2022/10/07 08:46:13;;;;;;;;;;;;;;;;;;5042143;28;1150;-78
2022/10/07 08:48:40;;;;;;;;;;;;;;;;;;5034186;28;1408;-77
2022/10/07 08:51:11;;;;;;;;;;;;;;;;;;5034114;28;1012;-78
2022/10/07 08:53:37;;;;;;;;;;;;;;;;;;5035167;28;1072;-78
2022/10/07 08:56:07;;;;;;;;;;;;;;;;;;5033861;28;1115;-79
2022/10/07 08:58:35;;;;;;;;;;;;;;;;;;5034432;28;1281;-78
2022/10/07 09:01:05;;;;;;;;;;;;;;;;;;5034249;28;2400;-79
2022/10/07 09:03:34;;;;;;;;;;;;;;;;;;5033485;28;954;-78
2022/10/07 09:06:01;;;;;;;;;;;;;;;;;;5034695;28;1147;-78
2022/10/07 09:08:28;;;;;;;;;;;;;;;;;;5033658;28;1365;-78
2022/10/07 09:10:55;;;;;;;;;;;;;;;;;;5034327;28;878;-77
2022/10/07 09:13:23;;;;;;;;;;;;;;;;;;5034271;28;1047;-78
2022/10/07 09:15:59;;;;;;;;;;;;;;;;;;5032564;28;1589;-78
2022/10/07 09:18:28;;;;;;;;;;;;;;;;;;5034203;28;1282;-77
2022/10/07 09:20:55;;;;;;;;;;;;;;;;;;5033563;28;1973;-78
2022/10/07 09:23:22;;;;;;;;;;;;;;;;;;5032788;28;1580;-78
2022/10/07 09:25:49;;;;;;;;;;;;;;;;;;5033523;28;957;-78
2022/10/07 09:28:16;;;;;;;;;;;;;;;;;;5033160;28;1396;-79
2022/10/07 09:30:44;;;;;;;;;;;;;;;;;;5033596;28;960;-78
2022/10/07 09:33:13;;;;;;;;;;;;;;;;;;5033184;28;1123;-78
2022/10/07 09:35:40;;;;;;;;;;;;;;;;;;5032909;28;1381;-78
2022/10/07 09:38:08;;;;;;;;;;;;;;;;;;5033340;28;1272;-79
2022/10/07 09:40:35;;;;;;;;;;;;;;;;;;5050511;22;3512;-77
2022/10/07 09:43:02;;;;;;;;;;;;;;;;;;5049601;28;1983;-76
2022/10/07 09:45:30;;;;;;;;;;;;;;;;;;5043683;28;1264;-77
2022/10/07 09:47:56;;;;;;;;;;;;;;;;;;5030699;28;1067;-76
2022/10/07 09:50:30;;;;;;;;;;;;;;;;;;5030829;28;1411;-77
2022/10/07 09:52:57;;;;;;;;;;;;;;;;;;5030554;28;1970;-77
2022/10/07 09:55:30;;;;;;;;;;;;;;;;;;5029651;28;1370;-77
2022/10/07 09:57:58;;;;;;;;;;;;;;;;;;5030556;28;1080;-77
2022/10/07 10:00:25;;;;;;;;;;;;;;;;;;5031195;28;1429;-78
2022/10/07 10:02:52;;;;;;;;;;;;;;;;;;5032163;28;1068;-78
2022/10/07 10:05:19;;;;;;;;;;;;;;;;;;5031108;28;1290;-77
2022/10/07 10:07:45;;;;;;;;;;;;;;;;;;5033211;28;1124;-77
2022/10/07 10:10:15;;;;;;;;;;;;;;;;;;5035464;28;1411;-77
2022/10/07 10:12:44;;;;;;;;;;;;;;;;;;5054363;28;1886;-78
2022/10/07 10:15:20;;;;;;;;;;;;;;;;;;5057227;28;957;-78
2022/10/07 10:17:47;;;;;;;;;;;;;;;;;;5058468;28;1298;-78
2022/10/07 10:20:31;;;;;;;;;;;;;;;;;;5051016;28;1325;-77
2022/10/07 10:22:57;;;;;;;;;;;;;;;;;;5051314;28;1067;-77
2022/10/07 10:28:13;;;;;;;;;;;;;;;;;;5052308;28;981;-78
2022/10/07 10:30:41;;;;;;;;;;;;;;;;;;5067590;28;1320;-78
2022/10/07 10:33:13;;;;;;;;;;;;;;;;;;5035505;28;2033;-77
2022/10/07 10:35:40;;;;;;;;;;;;;;;;;;5031269;28;1077;-77
2022/10/07 10:38:14;;;;;;;;;;;;;;;;;;5031498;28;977;-77
2022/10/07 10:40:42;;;;;;;;;;;;;;;;;;5033834;28;1325;-77
2022/10/07 10:43:15;;;;;;;;;;;;;;;;;;5044719;28;1318;-78
2022/10/07 10:45:43;;;;;;;;;;;;;;;;;;5069286;28;1324;-78
2022/10/07 10:48:15;;;;;;;;;;;;;;;;;;5043412;28;1565;-77
2022/10/07 10:50:42;;;;;;;;;;;;;;;;;;5035152;28;1347;-78
2022/10/07 10:53:12;;;;;;;;;;;;;;;;;;5047759;28;1906;-77
2022/10/07 10:55:43;;;;;;;;;;;;;;;;;;5041166;28;1533;-76
2022/10/07 10:58:14;;;;;;;;;;;;;;;;;;5043879;28;1159;-76
2022/10/07 11:00:44;;;;;;;;;;;;;;;;;;5034326;28;1417;-77
2022/10/07 11:03:26;;;;;;;;;;;;;;;;;;5042681;28;1551;-77
2022/10/07 11:05:53;;;;;;;;;;;;;;;;;;5042438;28;1430;-78
2022/10/07 11:08:19;;;;;;;;;;;;;;;;;;5042722;28;1499;-77
2022/10/07 11:10:48;;;;;;;;;;;;;;;;;;5039508;28;1910;-78
2022/10/07 11:13:19;;;;;;;;;;;;;;;;;;5054856;28;1965;-78
2022/10/07 11:15:47;;;;;;;;;;;;;;;;;;5059965;28;913;-77
2022/10/07 11:18:13;;;;;;;;;;;;;;;;;;5047798;28;1432;-77
2022/10/07 11:20:41;;;;;;;;;;;;;;;;;;5039066;28;1337;-78
2022/10/07 11:23:08;;;;;;;;;;;;;;;;;;5033054;28;783;-77
2022/10/07 11:25:36;;;;;;;;;;;;;;;;;;5045340;28;1333;-78
2022/10/07 11:28:07;;;;;;;;;;;;;;;;;;5047354;28;1390;-78
2022/10/07 11:30:35;;;;;;;;;;;;;;;;;;5033554;28;1341;-77
2022/10/07 11:33:03;;;;;;;;;;;;;;;;;;5039293;28;1973;-78
2022/10/07 11:35:31;;;;;;;;;;;;;;;;;;5040080;28;1083;-77
2022/10/07 11:37:58;;;;;;;;;;;;;;;;;;5042162;28;1548;-77
2022/10/07 11:40:25;;;;;;;;;;;;;;;;;;5044737;28;1331;-77
2022/10/07 11:42:51;;;;;;;;;;;;;;;;;;5051546;28;835;-77
2022/10/07 11:45:19;;;;;;;;;;;;;;;;;;5046288;28;1089;-78
2022/10/07 11:47:46;;;;;;;;;;;;;;;;;;5062601;28;1076;-78
2022/10/07 11:50:13;;;;;;;;;;;;;;;;;;5073067;28;1342;-78
2022/10/07 11:52:40;;;;;;;;;;;;;;;;;;5071990;28;1906;-78
2022/10/07 11:55:07;;;;;;;;;;;;;;;;;;5073316;28;1138;-77
2022/10/07 11:57:34;;;;;;;;;;;;;;;;;;5073144;28;1062;-77
2022/10/07 12:00:01;;;;;;;;;;;;;;;;;;5070961;28;1464;-77
2022/10/07 12:02:51;;;;;;;;;;;;;;;;;;5052297;28;842;-78
2022/10/07 12:05:42;;;;;;;;;;;;;;;;;;5031407;28;1569;-77
2022/10/07 12:08:23;;;;;;;;;;;;;;;;;;5042479;28;1230;-77
2022/10/07 12:10:52;;;;;;;;;;;;;;;;;;5046617;28;1648;-77
2022/10/07 12:13:39;;;;;;;;;;;;;;;;;;5045412;28;1971;-77
2022/10/07 12:16:24;;;;;;;;;;;;;;;;;;5035220;28;1498;-77
2022/10/07 12:18:56;;;;;;;;;;;;;;;;;;5044893;28;1223;-78
2022/10/07 12:21:23;;;;;;;;;;;;;;;;;;5035681;28;1413;-77
2022/10/07 12:23:55;;;;;;;;;;;;;;;;;;5037802;28;1594;-77
2022/10/07 12:26:50;;;;;;;;;;;;;;;;;;5031112;28;1647;-77
2022/10/07 12:29:19;;;;;;;;;;;;;;;;;;5051494;28;1500;-77
2022/10/07 12:31:46;;;;;;;;;;;;;;;;;;5052105;28;1314;-77
2022/10/07 12:34:19;;;;;;;;;;;;;;;;;;5050493;28;1918;-77
2022/10/07 12:36:45;;;;;;;;;;;;;;;;;;5049133;28;1482;-77
2022/10/07 12:39:30;;;;;;;;;;;;;;;;;;5050546;28;1391;-77
2022/10/07 12:41:58;;;;;;;;;;;;;;;;;;5031767;28;1305;-77
2022/10/07 12:44:26;;;;;;;;;;;;;;;;;;5033164;28;1060;-77
2022/10/07 12:46:52;;;;;;;;;;;;;;;;;;5033433;28;1088;-77
2022/10/07 12:49:20;;;;;;;;;;;;;;;;;;5036770;28;1427;-77
2022/10/07 12:51:46;;;;;;;;;;;;;;;;;;5041809;28;1843;-78
2022/10/07 12:54:14;;;;;;;;;;;;;;;;;;5045834;28;2034;-78
2022/10/07 12:56:41;;;;;;;;;;;;;;;;;;5048491;28;1446;-77
2022/10/07 13:02:16;;;;;;;;;;;;;;;;;;5032571;28;1335;-77
2022/10/07 13:05:05;;;;;;;;;;;;;;;;;;5033450;28;1108;-77
2022/10/07 13:07:45;;;;;;;;;;;;;;;;;;5039141;28;1487;-78
2022/10/07 13:10:21;;;;;;;;;;;;;;;;;;5043219;28;1386;-77
2022/10/07 13:12:50;;;;;;;;;;;;;;;;;;5046560;28;1948;-77
2022/10/07 13:15:20;;;;;;;;;;;;;;;;;;5046267;28;1375;-76
2022/10/07 13:17:47;;;;;;;;;;;;;;;;;;5049784;28;1383;-78
2022/10/07 13:20:34;;;;;;;;;;;;;;;;;;5046754;28;1436;-78
2022/10/07 13:23:03;;;;;;;;;;;;;;;;;;5022895;28;1456;-78
2022/10/07 13:25:30;;;;;;;;;;;;;;;;;;5042068;28;1091;-78
2022/10/07 13:27:57;;;;;;;;;;;;;;;;;;5042714;28;1476;-79
2022/10/07 13:30:36;;;;;;;;;;;;;;;;;;5033002;28;1342;-78
2022/10/07 13:33:26;;;;;;;;;;;;;;;;;;5046735;28;1931;-78
2022/10/07 13:36:05;;;;;;;;;;;;;;;;;;5036622;28;1775;-78
2022/10/07 13:38:31;;;;;;;;;;;;;;;;;;5044530;28;1435;-78
2022/10/07 13:41:01;;;;;;;;;;;;;;;;;;5043485;28;1374;-78
2022/10/07 13:43:29;;;;;;;;;;;;;;;;;;5041578;28;1443;-77
2022/10/07 13:45:57;;;;;;;;;;;;;;;;;;5039685;28;1552;-76
2022/10/07 13:48:24;;;;;;;;;;;;;;;;;;5044980;28;1466;-77
2022/10/07 13:50:50;;;;;;;;;;;;;;;;;;5055440;28;1495;-77
2022/10/07 13:53:18;;;;;;;;;;;;;;;;;;5040103;28;1914;-77
2022/10/07 13:55:46;;;;;;;;;;;;;;;;;;5042745;28;1373;-76
2022/10/07 13:58:12;;;;;;;;;;;;;;;;;;5037902;28;1379;-77
2022/10/07 14:00:41;;;;;;;;;;;;;;;;;;5041612;28;1671;-77
2022/10/07 14:03:13;;;;;;;;;;;;;;;;;;5038914;28;1352;-77
2022/10/07 14:05:45;;;;;;;;;;;;;;;;;;5038448;28;1448;-77
2022/10/07 14:08:14;;;;;;;;;;;;;;;;;;5040040;28;1351;-76
2022/10/07 14:10:48;;;;;;;;;;;;;;;;;;5036736;28;1409;-77
2022/10/07 14:13:14;;;;;;;;;;;;;;;;;;5039515;28;1918;-77
2022/10/07 14:15:41;;;;;;;;;;;;;;;;;;5045392;28;1446;-77
2022/10/07 14:18:08;;;;;;;;;;;;;;;;;;5043502;28;1434;-78
2022/10/07 14:20:36;;;;;;;;;;;;;;;;;;5049305;28;1505;-77
2022/10/07 14:23:04;;;;;;;;;;;;;;;;;;5051451;28;1446;-77
2022/10/07 14:25:31;;;;;;;;;;;;;;;;;;5055584;28;1448;-77
2022/10/07 14:28:15;;;;;;;;;;;;;;;;;;5050163;28;1391;-78
2022/10/07 14:36:13;;;;;;;;;;;;;;;;;;5034019;28;1501;-76
2022/10/07 14:38:39;;;;;;;;;;;;;;;;;;5045070;28;1414;-76
2022/10/07 14:41:06;;;;;;;;;;;;;;;;;;5043720;28;1379;-77
2022/10/07 14:43:32;;;;;;;;;;;;;;;;;;5043844;28;1122;-77
2022/10/07 14:46:06;;;;;;;;;;;;;;;;;;5043294;28;1409;-77
2022/10/07 14:48:32;;;;;;;;;;;;;;;;;;5039220;28;1378;-78
2022/10/07 14:50:58;;;;;;;;;;;;;;;;;;5041553;28;1568;-77
2022/10/07 14:53:26;;;;;;;;;;;;;;;;;;5043487;28;1974;-80
2022/10/07 14:55:52;;;;;;;;;;;;;;;;;;5046722;28;1372;-78
2022/10/07 14:58:19;;;;;;;;;;;;;;;;;;5056597;28;1402;-78
2022/10/07 15:00:45;;;;;;;;;;;;;;;;;;5057221;28;1363;-80
2022/10/07 15:03:12;;;;;;;;;;;;;;;;;;5055100;28;1387;-79
2022/10/07 15:05:39;;;;;;;;;;;;;;;;;;5050975;28;1375;-78
2022/10/07 15:08:05;;;;;;;;;;;;;;;;;;5047642;28;1314;-78
2022/10/07 15:10:32;;;;;;;;;;;;;;;;;;5054466;28;1472;-78
2022/10/07 15:12:59;;;;;;;;;;;;;;;;;;5038293;28;1923;-77
2022/10/07 15:15:25;;;;;;;;;;;;;;;;;;5040337;28;1495;-77
2022/10/07 15:17:51;;;;;;;;;;;;;;;;;;5044517;28;1558;-79
2022/10/07 15:20:18;;;;;;;;;;;;;;;;;;5046244;28;1321;-79
2022/10/07 15:22:44;;;;;;;;;;;;;;;;;;5040286;28;1461;-79
2022/10/07 15:25:11;;;;;;;;;;;;;;;;;;5045168;28;1279;-78
2022/10/07 15:27:39;;;;;;;;;;;;;;;;;;5042102;28;1414;-79
2022/10/07 15:30:06;;;;;;;;;;;;;;;;;;5054825;28;1382;-79
2022/10/07 15:32:32;;;;;;;;;;;;;;;;;;5048237;28;1335;-78
2022/10/07 15:34:58;;;;;;;;;;;;;;;;;;5034175;28;1898;-79
2022/10/07 15:37:26;;;;;;;;;;;;;;;;;;5045421;28;1458;-79
2022/10/07 15:39:52;;;;;;;;;;;;;;;;;;5034974;28;989;-79
2022/10/07 15:42:19;;;;;;;;;;;;;;;;;;5035595;28;1395;-79
2022/10/07 15:44:49;;;;;;;;;;;;;;;;;;5043877;28;1399;-79
2022/10/07 15:47:15;;;;;;;;;;;;;;;;;;5039995;28;1389;-78
2022/10/07 15:49:42;;;;;;;;;;;;;;;;;;5038570;28;1581;-78
2022/10/07 15:52:08;;;;;;;;;;;;;;;;;;5042991;28;1633;-77
2022/10/07 15:54:34;;;;;;;;;;;;;;;;;;5032257;28;1914;-79
2022/10/07 15:57:01;;;;;;;;;;;;;;;;;;5032387;28;1032;-77
2022/10/07 15:59:27;;;;;;;;;;;;;;;;;;5038133;28;1470;-78
2022/10/07 16:01:54;;;;;;;;;;;;;;;;;;5038947;28;1642;-78
2022/10/07 16:04:21;;;;;;;;;;;;;;;;;;5046751;28;1726;-78
2022/10/07 16:06:50;;;;;;;;;;;;;;;;;;5052328;28;1056;-78
2022/10/07 16:09:16;;;;;;;;;;;;;;;;;;5046314;28;1446;-78
2022/10/07 16:11:42;;;;;;;;;;;;;;;;;;5065392;28;1470;-78
2022/10/07 16:14:09;;;;;;;;;;;;;;;;;;5036062;28;1938;-78
2022/10/07 16:16:35;;;;;;;;;;;;;;;;;;5041973;28;992;-78
2022/10/07 16:19:03;;;;;;;;;;;;;;;;;;5033730;28;1209;-77
2022/10/07 16:21:30;;;;;;;;;;;;;;;;;;5035388;28;1292;-79
2022/10/07 16:23:57;;;;;;;;;;;;;;;;;;5036820;28;1658;-78
2022/10/07 16:26:25;;;;;;;;;;;;;;;;;;5041750;28;1636;-77
2022/10/07 16:31:37;;;;;;;;;;;;;;;;;;5035959;28;1446;-78
2022/10/07 16:34:04;;;;;;;;;;;;;;;;;;5036147;28;1918;-79
2022/10/07 16:36:30;;;;;;;;;;;;;;;;;;5050878;28;1467;-78
2022/10/07 16:38:58;;;;;;;;;;;;;;;;;;5052202;28;1165;-78
2022/10/07 16:41:24;;;;;;;;;;;;;;;;;;5048348;28;1439;-78
2022/10/07 16:43:50;;;;;;;;;;;;;;;;;;5040933;28;1442;-78
2022/10/07 16:46:18;;;;;;;;;;;;;;;;;;5046218;28;1142;-79
2022/10/07 16:48:44;;;;;;;;;;;;;;;;;;5040356;28;1429;-78
2022/10/07 16:51:12;;;;;;;;;;;;;;;;;;5038891;28;1394;-79
2022/10/07 16:53:38;;;;;;;;;;;;;;;;;;5047135;28;1918;-79
2022/10/07 16:56:05;;;;;;;;;;;;;;;;;;5052651;28;961;-78
2022/10/07 16:58:32;;;;;;;;;;;;;;;;;;5046736;28;1407;-79
2022/10/07 17:00:59;;;;;;;;;;;;;;;;;;5039877;28;1313;-79
2022/10/07 17:03:26;;;;;;;;;;;;;;;;;;5035779;28;818;-79
2022/10/07 17:05:54;;;;;;;;;;;;;;;;;;5033706;28;790;-78
2022/10/07 17:08:24;;;;;;;;;;;;;;;;;;5040748;28;1554;-78
2022/10/07 17:10:51;;;;;;;;;;;;;;;;;;5043357;28;1404;-78
2022/10/07 17:13:17;;;;;;;;;;;;;;;;;;5051319;28;1981;-78
2022/10/07 17:15:43;;;;;;;;;;;;;;;;;;5052113;28;781;-78
2022/10/07 17:18:09;;;;;;;;;;;;;;;;;;5047853;28;1458;-77
2022/10/07 17:20:36;;;;;;;;;;;;;;;;;;5039526;28;1562;-78
2022/10/07 17:23:02;;;;;;;;;;;;;;;;;;5037681;28;1352;-77
2022/10/07 17:25:30;;;;;;;;;;;;;;;;;;5039187;28;1434;-77
2022/10/07 17:27:57;;;;;;;;;;;;;;;;;;5041214;28;1188;-77
2022/10/07 17:30:23;;;;;;;;;;;;;;;;;;5034918;28;1344;-78
2022/10/07 17:32:50;;;;;;;;;;;;;;;;;;5042478;28;1431;-79
2022/10/07 17:35:16;;;;;;;;;;;;;;;;;;5041330;28;1942;-79